Fort Osage, Missouri
Current Conditions -  °F | °C
As of 4:35 PM on Saturday 25 Oct 2014 (Local Time) from KGPH Reporting Station
Clear Clear  
Wind Chill: 81°   Ceiling: Unl
Heat Index: 81°   Visibility: 10mi
Dew Point: 46°   Wind: 5mph
Humidity: 30%   Direction: 200°SSW
Pressure: 30.02"   Gusts: NA
Location:  39.1591°N, 94.1879°W
Report Text: KGPH 252135Z AUTO 20004KT 10SM CLR 27/08 A3002 RMK AO2
Loading
Personal Weather Stations






























Interactive Weather Map New forecast layout! Learn more

10-Day Weather Forecast

Advertisements
Track Severe Weather on mobile